Time;durP1;ratioP1;P1;durP2;ratioP2;P2;SDS_P1;SDS_P2;PMS_P1;PMS_P2;Temp;Humidity;BMP_temperature;BMP_pressure;BME280_temperature;BME280_humidity;BME280_pressure;Samples;Min_cycle;Max_cycle;Signal;HPM_P1;HPM_P2
2022/05/11 00:00:59;;;;;;;4.80;3.35;;;;;;;;;;5014465;28;20075;-71
2022/05/11 00:03:26;;;;;;;7.25;5.43;;;;;;;;;;5031687;28;20389;-71
2022/05/11 00:05:51;;;;;;;19.60;13.60;;;;;;;;;;5032044;28;20116;-71
2022/05/11 00:08:17;;;;;;;12.07;8.07;;;;;;;;;;5032167;28;20120;-72
2022/05/11 00:10:42;;;;;;;4.50;3.75;;;;;;;;;;5014053;28;20469;-72
2022/05/11 00:13:08;;;;;;;4.28;3.63;;;;;;;;;;5047888;28;20049;-72
2022/05/11 00:15:33;;;;;;;3.47;3.17;;;;;;;;;;5051732;28;20068;-72
2022/05/11 00:17:59;;;;;;;3.90;3.50;;;;;;;;;;5051979;28;20079;-71
2022/05/11 00:20:25;;;;;;;13.45;7.80;;;;;;;;;;5052044;28;20102;-71
2022/05/11 00:22:54;;;;;;;8.77;6.35;;;;;;;;;;5051822;28;20040;-71
2022/05/11 00:25:20;;;;;;;8.55;6.13;;;;;;;;;;5051771;28;20441;-71
2022/05/11 00:27:45;;;;;;;9.52;6.50;;;;;;;;;;5052155;28;20025;-72
2022/05/11 00:30:11;;;;;;;9.07;5.28;;;;;;;;;;5051694;28;20028;-72
2022/05/11 00:32:37;;;;;;;23.35;13.98;;;;;;;;;;5051568;28;20362;-72
2022/05/11 00:35:02;;;;;;;18.70;9.90;;;;;;;;;;5051613;28;20043;-72
2022/05/11 00:37:28;;;;;;;10.25;6.32;;;;;;;;;;5051586;28;20036;-72
2022/05/11 00:39:53;;;;;;;11.43;6.13;;;;;;;;;;5051386;28;20091;-72
2022/05/11 00:42:18;;;;;;;47.58;20.60;;;;;;;;;;5051456;28;20460;-72
2022/05/11 00:44:45;;;;;;;46.00;19.77;;;;;;;;;;5051183;28;20032;-73
2022/05/11 00:47:17;;;;;;;40.90;16.70;;;;;;;;;;5051264;28;20016;-72
2022/05/11 00:49:48;;;;;;;14.75;6.10;;;;;;;;;;5051356;28;20041;-72
2022/05/11 00:52:48;;;;;;;10.52;5.10;;;;;;;;;;5051414;28;20462;-72
2022/05/11 00:55:23;;;;;;;23.80;10.50;;;;;;;;;;4970409;28;20037;-72
2022/05/11 00:57:57;;;;;;;10.50;5.45;;;;;;;;;;5039459;28;20053;-71
2022/05/11 01:00:23;;;;;;;14.65;6.80;;;;;;;;;;5051258;28;20400;-71
2022/05/11 01:02:52;;;;;;;5.63;3.97;;;;;;;;;;5051498;28;20608;-71
2022/05/11 01:05:17;;;;;;;4.03;3.25;;;;;;;;;;5033130;28;20040;-71
2022/05/11 01:07:43;;;;;;;5.43;3.08;;;;;;;;;;5051292;28;20024;-71
2022/05/11 01:10:09;;;;;;;7.00;3.13;;;;;;;;;;5033383;28;20036;-71
2022/05/11 01:12:40;;;;;;;9.07;5.00;;;;;;;;;;5040176;28;20144;-71
2022/05/11 01:15:06;;;;;;;7.18;3.95;;;;;;;;;;5031307;28;20034;-72
2022/05/11 01:17:36;;;;;;;9.27;4.43;;;;;;;;;;5035163;28;20018;-72
2022/05/11 01:20:01;;;;;;;18.75;7.88;;;;;;;;;;5035270;28;20029;-72
2022/05/11 01:22:26;;;;;;;5.07;3.95;;;;;;;;;;5035143;28;20449;-72
2022/05/11 01:24:52;;;;;;;3.33;3.00;;;;;;;;;;5035071;28;20060;-72
2022/05/11 01:27:38;;;;;;;3.55;3.08;;;;;;;;;;5035183;28;20513;-71
2022/05/11 01:30:06;;;;;;;4.53;3.63;;;;;;;;;;5035062;28;20523;-71
2022/05/11 01:32:34;;;;;;;7.85;4.65;;;;;;;;;;5035222;28;20036;-71
2022/05/11 01:35:06;;;;;;;12.70;6.85;;;;;;;;;;5034602;28;20105;-71
2022/05/11 01:37:36;;;;;;;19.60;9.80;;;;;;;;;;5034315;28;20029;-71
2022/05/11 01:40:01;;;;;;;6.43;4.38;;;;;;;;;;5035027;28;20025;-71
2022/05/11 01:42:26;;;;;;;4.30;3.67;;;;;;;;;;5034933;28;20124;-71
2022/05/11 01:44:52;;;;;;;9.02;4.47;;;;;;;;;;5034758;28;20029;-71
2022/05/11 01:47:17;;;;;;;8.60;4.43;;;;;;;;;;5034605;28;20025;-72
2022/05/11 01:49:42;;;;;;;6.85;4.38;;;;;;;;;;5034888;28;20100;-72
2022/05/11 01:52:08;;;;;;;16.95;8.05;;;;;;;;;;5034911;28;20068;-72
2022/05/11 01:54:34;;;;;;;11.35;6.07;;;;;;;;;;5034649;28;20072;-71
2022/05/11 01:57:00;;;;;;;7.80;4.72;;;;;;;;;;5034641;28;20420;-71
2022/05/11 01:59:26;;;;;;;6.70;4.75;;;;;;;;;;5034726;28;20057;-72
2022/05/11 02:01:51;;;;;;;5.70;3.85;;;;;;;;;;5034494;28;20702;-71
2022/05/11 02:09:44;;;;;;;14.98;5.78;;;;;;;;;;5034687;28;20033;-72
2022/05/11 02:12:10;;;;;;;7.85;4.63;;;;;;;;;;5034350;28;20045;-72
2022/05/11 02:14:36;;;;;;;12.77;5.90;;;;;;;;;;5034210;28;20087;-72
2022/05/11 02:17:02;;;;;;;7.15;4.60;;;;;;;;;;5034237;28;20091;-72
2022/05/11 02:19:31;;;;;;;9.23;5.10;;;;;;;;;;5034365;28;20405;-72
2022/05/11 02:21:56;;;;;;;16.45;6.35;;;;;;;;;;5034073;28;20112;-72
2022/05/11 02:24:21;;;;;;;5.75;3.70;;;;;;;;;;5034256;28;20116;-72
2022/05/11 02:26:47;;;;;;;5.07;3.42;;;;;;;;;;5015822;28;20036;-71
2022/05/11 02:29:13;;;;;;;5.82;3.72;;;;;;;;;;5016181;28;20033;-72
2022/05/11 02:31:38;;;;;;;9.77;3.95;;;;;;;;;;5034018;28;20104;-72
2022/05/11 02:34:06;;;;;;;12.52;5.47;;;;;;;;;;5034227;28;20100;-72
2022/05/11 02:36:32;;;;;;;14.05;5.40;;;;;;;;;;5034132;28;20108;-72
2022/05/11 02:38:57;;;;;;;17.55;5.85;;;;;;;;;;5034134;28;20156;-72
2022/05/11 02:41:23;;;;;;;13.52;5.55;;;;;;;;;;5033730;28;20047;-72
2022/05/11 02:43:48;;;;;;;12.88;5.82;;;;;;;;;;5033821;28;20040;-71
2022/05/11 02:46:14;;;;;;;13.23;4.68;;;;;;;;;;5033767;28;20608;-71
2022/05/11 02:48:39;;;;;;;7.50;3.78;;;;;;;;;;5033568;28;20091;-71
2022/05/11 02:51:04;;;;;;;8.13;4.05;;;;;;;;;;5033588;28;20096;-71
2022/05/11 02:53:31;;;;;;;6.65;3.92;;;;;;;;;;5033701;28;20053;-72
2022/05/11 02:55:57;;;;;;;6.95;3.95;;;;;;;;;;5033656;28;20025;-70
2022/05/11 02:58:25;;;;;;;11.52;4.93;;;;;;;;;;5033459;28;20107;-71
2022/05/11 03:00:51;;;;;;;15.45;5.53;;;;;;;;;;5033640;28;20025;-72
2022/05/11 03:03:17;;;;;;;8.25;4.22;;;;;;;;;;5033632;28;20029;-71
2022/05/11 03:05:43;;;;;;;10.13;4.47;;;;;;;;;;5033442;28;20021;-72
2022/05/11 03:08:09;;;;;;;6.30;4.13;;;;;;;;;;5033634;28;20037;-72
2022/05/11 03:10:34;;;;;;;5.80;4.00;;;;;;;;;;5033262;28;20481;-72
2022/05/11 03:13:02;;;;;;;8.50;4.50;;;;;;;;;;5035167;28;20378;-72
2022/05/11 03:15:28;;;;;;;6.55;4.40;;;;;;;;;;5032964;28;20037;-72
2022/05/11 03:17:54;;;;;;;8.23;5.05;;;;;;;;;;5033066;28;20461;-72
2022/05/11 03:20:22;;;;;;;7.68;4.80;;;;;;;;;;5033099;28;20029;-72
2022/05/11 03:22:48;;;;;;;12.45;5.97;;;;;;;;;;5033162;28;20037;-73
2022/05/11 03:25:13;;;;;;;8.07;4.15;;;;;;;;;;5032916;28;20033;-73
2022/05/11 03:27:39;;;;;;;5.75;3.95;;;;;;;;;;5033090;28;20030;-73
2022/05/11 03:30:05;;;;;;;15.05;5.82;;;;;;;;;;5033132;28;20029;-72
2022/05/11 03:35:14;;;;;;;8.90;4.43;;;;;;;;;;5035461;28;20041;-73
2022/05/11 03:37:39;;;;;;;8.27;4.25;;;;;;;;;;5035172;28;20036;-72
2022/05/11 03:40:07;;;;;;;12.20;5.53;;;;;;;;;;5034553;28;20029;-72
2022/05/11 03:42:34;;;;;;;14.10;5.60;;;;;;;;;;5034748;28;20056;-73
2022/05/11 03:45:11;;;;;;;10.57;5.57;;;;;;;;;;5034667;28;20044;-73
2022/05/11 03:47:36;;;;;;;13.02;5.70;;;;;;;;;;5034977;28;20044;-73
2022/05/11 03:50:02;;;;;;;17.15;5.95;;;;;;;;;;5034988;28;20014;-73
2022/05/11 03:52:27;;;;;;;9.25;4.75;;;;;;;;;;5035294;28;20021;-73
2022/05/11 03:54:53;;;;;;;8.25;5.05;;;;;;;;;;5035150;28;20450;-73
2022/05/11 03:57:18;;;;;;;9.43;5.38;;;;;;;;;;5034493;28;20034;-73
2022/05/11 03:59:44;;;;;;;11.43;5.43;;;;;;;;;;5034752;28;20021;-73
2022/05/11 04:02:10;;;;;;;12.93;6.63;;;;;;;;;;5034883;28;20049;-73
2022/05/11 04:04:35;;;;;;;15.65;7.28;;;;;;;;;;5034707;28;20022;-73
2022/05/11 04:07:00;;;;;;;14.35;7.65;;;;;;;;;;5034674;28;20033;-73
2022/05/11 04:09:26;;;;;;;23.08;10.52;;;;;;;;;;5034672;28;20060;-72
2022/05/11 04:11:52;;;;;;;13.57;7.45;;;;;;;;;;5037223;28;20048;-72
2022/05/11 04:14:17;;;;;;;12.50;7.65;;;;;;;;;;5054509;28;20027;-72
2022/05/11 04:16:43;;;;;;;12.52;8.05;;;;;;;;;;5054576;28;20464;-71
2022/05/11 04:19:09;;;;;;;16.67;8.43;;;;;;;;;;5054428;28;20063;-72
2022/05/11 04:21:34;;;;;;;17.52;8.35;;;;;;;;;;5054085;28;20028;-72
2022/05/11 04:24:02;;;;;;;20.27;10.43;;;;;;;;;;5053628;28;20502;-72
2022/05/11 04:26:30;;;;;;;21.42;10.25;;;;;;;;;;5054440;28;20404;-72
2022/05/11 04:28:56;;;;;;;21.35;11.00;;;;;;;;;;5054496;28;20025;-71
2022/05/11 04:31:21;;;;;;;23.70;11.52;;;;;;;;;;5036621;28;20103;-72
2022/05/11 04:33:47;;;;;;;23.25;11.02;;;;;;;;;;5054408;28;20075;-71
2022/05/11 04:36:12;;;;;;;19.13;11.00;;;;;;;;;;5054046;28;20025;-72
2022/05/11 04:38:38;;;;;;;17.35;10.38;;;;;;;;;;5054267;28;20047;-71
2022/05/11 04:41:04;;;;;;;16.90;10.02;;;;;;;;;;5053960;28;20017;-71
2022/05/11 04:43:29;;;;;;;18.67;9.68;;;;;;;;;;5053903;28;20040;-72
2022/05/11 04:45:55;;;;;;;25.92;10.20;;;;;;;;;;5053872;28;20085;-72
2022/05/11 04:48:20;;;;;;;18.08;9.68;;;;;;;;;;5053765;28;20067;-72
2022/05/11 04:50:46;;;;;;;20.98;9.50;;;;;;;;;;5053800;28;20020;-72
2022/05/11 04:53:12;;;;;;;20.80;9.43;;;;;;;;;;5054032;28;20025;-72
2022/05/11 04:55:38;;;;;;;13.75;7.68;;;;;;;;;;5053904;28;20467;-72
2022/05/11 04:58:04;;;;;;;12.02;7.45;;;;;;;;;;5053784;28;20025;-72
2022/05/11 05:00:29;;;;;;;12.95;6.72;;;;;;;;;;5053972;28;20410;-72
2022/05/11 05:02:55;;;;;;;15.10;7.35;;;;;;;;;;5054214;28;20095;-72
2022/05/11 05:05:20;;;;;;;12.77;7.40;;;;;;;;;;5052882;28;20082;-72
2022/05/11 05:07:45;;;;;;;14.07;7.32;;;;;;;;;;5053118;28;20033;-72
2022/05/11 05:10:12;;;;;;;12.25;6.63;;;;;;;;;;5053042;28;20017;-72
2022/05/11 05:12:38;;;;;;;9.68;5.88;;;;;;;;;;5043545;28;20046;-72
2022/05/11 05:15:04;;;;;;;9.82;6.28;;;;;;;;;;5033061;28;20025;-72
2022/05/11 05:17:29;;;;;;;10.32;5.65;;;;;;;;;;5033092;28;20436;-74
2022/05/11 05:19:55;;;;;;;8.05;4.90;;;;;;;;;;5033081;28;20033;-73
2022/05/11 05:22:20;;;;;;;7.78;4.40;;;;;;;;;;5033035;28;20029;-73
2022/05/11 05:24:45;;;;;;;8.20;4.85;;;;;;;;;;5033077;28;20429;-73
2022/05/11 05:27:13;;;;;;;6.60;4.25;;;;;;;;;;5032863;28;20100;-73
2022/05/11 05:32:23;;;;;;;8.07;4.75;;;;;;;;;;5032796;28;20033;-72
2022/05/11 05:34:48;;;;;;;10.13;4.55;;;;;;;;;;5033039;28;20090;-73
2022/05/11 05:37:14;;;;;;;7.35;4.35;;;;;;;;;;5032780;28;20116;-73
2022/05/11 05:39:40;;;;;;;6.13;4.90;;;;;;;;;;5032932;28;20029;-73
2022/05/11 05:42:06;;;;;;;7.43;4.72;;;;;;;;;;5032794;28;20034;-73
2022/05/11 05:44:32;;;;;;;5.43;3.95;;;;;;;;;;5032887;28;20026;-73
2022/05/11 05:47:04;;;;;;;5.55;4.28;;;;;;;;;;5032111;28;20030;-73
2022/05/11 05:49:30;;;;;;;4.47;4.00;;;;;;;;;;5031921;28;20025;-73
2022/05/11 05:51:56;;;;;;;5.47;4.30;;;;;;;;;;5031903;28;20079;-73
2022/05/11 05:54:21;;;;;;;7.38;4.18;;;;;;;;;;5031876;28;20281;-73
2022/05/11 05:56:46;;;;;;;6.13;4.03;;;;;;;;;;5031871;28;20374;-73
2022/05/11 05:59:14;;;;;;;5.00;3.95;;;;;;;;;;5031773;28;20033;-73
2022/05/11 06:01:39;;;;;;;9.40;4.35;;;;;;;;;;5032598;28;20052;-73
2022/05/11 06:04:05;;;;;;;5.95;3.97;;;;;;;;;;5017786;28;20080;-73
2022/05/11 06:06:30;;;;;;;6.25;4.07;;;;;;;;;;5035318;28;20017;-73
2022/05/11 06:08:56;;;;;;;5.57;4.00;;;;;;;;;;5035355;28;20026;-73
2022/05/11 06:11:21;;;;;;;7.45;4.28;;;;;;;;;;5035320;28;20030;-74
2022/05/11 06:13:47;;;;;;;8.25;5.40;;;;;;;;;;5037044;28;20040;-74
2022/05/11 06:16:14;;;;;;;16.38;8.30;;;;;;;;;;5035233;28;20041;-73
2022/05/11 06:18:41;;;;;;;17.63;9.07;;;;;;;;;;5017475;28;20075;-73
2022/05/11 06:21:08;;;;;;;20.30;10.48;;;;;;;;;;5035137;28;20032;-73
2022/05/11 06:23:33;;;;;;;12.10;8.30;;;;;;;;;;5035045;28;20065;-73
2022/05/11 06:25:59;;;;;;;9.60;5.93;;;;;;;;;;5034958;28;20537;-73
2022/05/11 06:28:24;;;;;;;9.85;5.60;;;;;;;;;;5034946;28;20022;-73
2022/05/11 06:30:49;;;;;;;9.03;6.20;;;;;;;;;;5034933;28;20381;-73
2022/05/11 06:33:15;;;;;;;14.80;8.68;;;;;;;;;;5034811;28;20748;-74
2022/05/11 06:35:40;;;;;;;18.15;9.65;;;;;;;;;;5034838;28;20026;-73
2022/05/11 06:38:06;;;;;;;19.45;9.10;;;;;;;;;;5034803;28;20111;-74
2022/05/11 06:40:32;;;;;;;12.88;6.90;;;;;;;;;;5034798;28;20074;-73
2022/05/11 06:42:57;;;;;;;15.90;8.75;;;;;;;;;;5034709;28;20487;-73
2022/05/11 06:45:23;;;;;;;18.92;10.23;;;;;;;;;;5034613;28;20029;-74
2022/05/11 06:47:49;;;;;;;13.18;8.15;;;;;;;;;;5034663;28;20044;-74
2022/05/11 06:50:15;;;;;;;19.55;10.40;;;;;;;;;;5034617;28;20009;-74
2022/05/11 06:52:40;;;;;;;20.15;9.75;;;;;;;;;;5034530;28;20588;-74
2022/05/11 07:00:38;;;;;;;17.23;9.45;;;;;;;;;;5034376;28;20033;-74
2022/05/11 07:03:04;;;;;;;14.73;8.67;;;;;;;;;;5034383;28;20025;-74
2022/05/11 07:05:30;;;;;;;19.10;10.35;;;;;;;;;;5034191;28;20315;-74
2022/05/11 07:07:55;;;;;;;17.40;9.38;;;;;;;;;;5034308;28;20453;-75
2022/05/11 07:10:21;;;;;;;18.90;9.60;;;;;;;;;;5034247;28;20116;-75
2022/05/11 07:12:47;;;;;;;19.23;9.15;;;;;;;;;;5033535;28;20045;-75
2022/05/11 07:15:14;;;;;;;19.00;9.57;;;;;;;;;;5033906;28;20029;-74
2022/05/11 07:17:46;;;;;;;17.70;8.88;;;;;;;;;;5034153;28;20029;-75
2022/05/11 07:20:13;;;;;;;18.77;9.10;;;;;;;;;;5034082;28;20482;-75
2022/05/11 07:22:38;;;;;;;14.18;8.00;;;;;;;;;;5034243;28;20018;-75
2022/05/11 07:25:05;;;;;;;17.07;8.80;;;;;;;;;;5035015;28;20117;-74
2022/05/11 07:27:30;;;;;;;16.63;8.77;;;;;;;;;;5035105;28;20025;-73
2022/05/11 07:29:55;;;;;;;14.95;8.75;;;;;;;;;;5034961;28;20071;-73
2022/05/11 07:32:22;;;;;;;12.35;7.85;;;;;;;;;;5034905;28;20021;-73
2022/05/11 07:34:48;;;;;;;16.88;9.13;;;;;;;;;;5035021;28;20033;-68
2022/05/11 07:37:14;;;;;;;13.43;8.20;;;;;;;;;;5034915;28;20067;-71
2022/05/11 07:39:39;;;;;;;15.50;8.52;;;;;;;;;;5034853;28;20068;-72
2022/05/11 07:42:05;;;;;;;15.88;8.70;;;;;;;;;;5034950;28;20107;-74
2022/05/11 07:44:30;;;;;;;17.08;8.82;;;;;;;;;;5034665;28;20044;-75
2022/05/11 07:46:55;;;;;;;13.53;8.07;;;;;;;;;;5034577;28;20057;-73
2022/05/11 07:49:21;;;;;;;15.52;8.25;;;;;;;;;;5034560;28;20374;-73
2022/05/11 07:51:46;;;;;;;12.95;7.93;;;;;;;;;;5034506;28;20028;-74
2022/05/11 07:54:13;;;;;;;17.95;8.63;;;;;;;;;;5034516;28;20540;-76
2022/05/11 08:02:06;;;;;;;13.43;7.70;;;;;;;;;;5033314;28;20021;-73
2022/05/11 08:04:31;;;;;;;11.25;7.35;;;;;;;;;;5033205;28;20036;-71
2022/05/11 08:06:57;;;;;;;14.90;7.70;;;;;;;;;;5033039;28;20029;-72
2022/05/11 08:09:23;;;;;;;10.07;5.65;;;;;;;;;;5033013;28;20100;-73
2022/05/11 08:11:50;;;;;;;12.43;7.90;;;;;;;;;;5033488;28;20562;-73
2022/05/11 08:14:15;;;;;;;11.70;7.43;;;;;;;;;;5034356;28;20258;-74
2022/05/11 08:16:41;;;;;;;15.18;7.18;;;;;;;;;;5032967;28;20113;-73
2022/05/11 08:19:07;;;;;;;10.57;5.97;;;;;;;;;;5033270;28;20373;-71
2022/05/11 08:21:33;;;;;;;12.30;6.75;;;;;;;;;;5032956;28;20037;-74
2022/05/11 08:23:59;;;;;;;11.18;5.45;;;;;;;;;;5032666;28;20036;-75
2022/05/11 08:26:24;;;;;;;8.85;5.70;;;;;;;;;;5032587;28;20033;-75
2022/05/11 08:28:50;;;;;;;10.95;6.40;;;;;;;;;;5032774;28;20057;-75
2022/05/11 08:33:59;;;;;;;9.55;5.82;;;;;;;;;;5032701;28;20398;-75
2022/05/11 08:36:26;;;;;;;13.03;6.47;;;;;;;;;;5015088;28;20028;-75
2022/05/11 08:38:56;;;;;;;6.47;5.43;;;;;;;;;;5032669;28;20271;-75
2022/05/11 08:41:27;;;;;;;7.22;4.72;;;;;;;;;;5032579;28;20021;-75
2022/05/11 08:43:59;;;;;;;9.82;6.15;;;;;;;;;;5032656;28;20033;-75
2022/05/11 08:46:39;;;;;;;23.17;5.97;;;;;;;;;;5033250;28;20040;-75
2022/05/11 08:49:05;;;;;;;;;;;;;;;;;;5034121;28;20026;-75
2022/05/11 08:51:36;;;;;;;8.45;5.78;;;;;;;;;;5033207;28;19912;-75
2022/05/11 08:54:07;;;;;;;7.85;4.82;;;;;;;;;;5033957;28;20389;-75
2022/05/11 08:56:33;;;;;;;15.02;5.47;;;;;;;;;;5033761;28;20034;-75
2022/05/11 08:59:00;;;;;;;8.32;4.85;;;;;;;;;;5034028;28;20052;-75
2022/05/11 09:01:30;;;;;;;7.65;4.85;;;;;;;;;;5016479;28;20466;-75
2022/05/11 09:03:58;;;;;;;9.50;4.97;;;;;;;;;;5033992;28;20088;-75
2022/05/11 09:06:28;;;;;;;5.53;4.28;;;;;;;;;;5033901;28;20087;-75
2022/05/11 09:08:54;;;;;;;10.13;5.10;;;;;;;;;;5033873;28;20029;-75
2022/05/11 09:11:24;;;;;;;7.78;4.75;;;;;;;;;;5034115;28;20083;-75
2022/05/11 09:13:50;;;;;;;11.45;4.63;;;;;;;;;;5032768;28;20412;-74
2022/05/11 09:16:23;;;;;;;4.80;4.07;;;;;;;;;;5033212;28;20164;-74
2022/05/11 09:18:48;;;;;;;7.60;4.15;;;;;;;;;;5033165;28;20108;-75
2022/05/11 09:21:20;;;;;;;5.72;4.53;;;;;;;;;;5032848;28;20469;-75
2022/05/11 09:23:50;;;;;;;9.95;4.57;;;;;;;;;;5031411;28;20080;-75
2022/05/11 09:26:16;;;;;;;8.18;4.20;;;;;;;;;;5032205;28;20461;-75
2022/05/11 09:28:47;;;;;;;16.23;4.53;;;;;;;;;;5032511;28;20018;-75
2022/05/11 09:31:26;;;;;;;28.30;4.88;;;;;;;;;;5015923;28;20025;-75
2022/05/11 09:33:55;;;;;;;6.85;4.30;;;;;;;;;;5032990;28;20112;-75
2022/05/11 09:36:35;;;;;;;4.30;3.90;;;;;;;;;;5015450;28;20026;-74
2022/05/11 09:39:28;;;;;;;4.20;3.70;;;;;;;;;;5036332;28;20040;-75
2022/05/11 09:41:55;;;;;;;5.53;3.80;;;;;;;;;;5033244;28;20042;-75
2022/05/11 09:44:25;;;;;;;4.13;3.70;;;;;;;;;;5035089;28;20105;-75
2022/05/11 09:46:51;;;;;;;6.30;3.80;;;;;;;;;;5035927;28;20041;-74
2022/05/11 09:49:18;;;;;;;5.95;3.95;;;;;;;;;;5035806;28;20024;-74
2022/05/11 09:51:46;;;;;;;6.93;4.25;;;;;;;;;;5035797;28;20026;-75
2022/05/11 09:54:32;;;;;;;4.20;3.55;;;;;;;;;;5036155;28;20022;-75
2022/05/11 09:56:59;;;;;;;5.63;3.63;;;;;;;;;;5036015;28;20461;-75
2022/05/11 09:59:32;;;;;;;3.80;3.50;;;;;;;;;;5036074;28;20029;-75
2022/05/11 10:02:04;;;;;;;3.70;3.40;;;;;;;;;;5035633;28;20038;-74
2022/05/11 10:04:31;;;;;;;3.80;3.40;;;;;;;;;;5035629;28;20128;-74
2022/05/11 10:06:57;;;;;;;3.55;2.78;;;;;;;;;;5033803;28;20460;-75
2022/05/11 10:09:28;;;;;;;3.63;3.33;;;;;;;;;;5034258;28;20086;-74
2022/05/11 10:11:53;;;;;;;4.72;3.67;;;;;;;;;;5034335;28;20048;-75
2022/05/11 10:22:49;;;;;;;3.85;3.58;;;;;;;;;;5036173;28;20044;-74
2022/05/11 10:25:18;;;;;;;3.67;3.38;;;;;;;;;;5018766;28;20083;-74
2022/05/11 10:27:47;;;;;;;3.63;3.38;;;;;;;;;;5035953;28;20018;-74
2022/05/11 10:30:24;;;;;;;4.03;3.40;;;;;;;;;;5036842;28;20030;-74
2022/05/11 10:32:55;;;;;;;3.50;3.20;;;;;;;;;;5035923;28;20393;-74
2022/05/11 10:35:23;;;;;;;2.42;2.22;;;;;;;;;;5035978;28;20025;-74
2022/05/11 10:37:54;;;;;;;6.40;3.50;;;;;;;;;;5035749;28;20024;-74
2022/05/11 10:40:26;;;;;;;3.55;3.25;;;;;;;;;;5034842;28;20036;-74
2022/05/11 10:43:10;;;;;;;3.63;3.35;;;;;;;;;;5034750;28;20022;-74
2022/05/11 10:45:50;;;;;;;3.35;3.10;;;;;;;;;;5034942;28;20108;-74
2022/05/11 10:48:24;;;;;;;3.58;3.13;;;;;;;;;;5016611;28;20397;-75
2022/05/11 10:50:50;;;;;;;3.75;3.35;;;;;;;;;;5034614;28;20037;-74
2022/05/11 10:53:20;;;;;;;5.22;3.33;;;;;;;;;;5034655;28;20373;-74
2022/05/11 10:55:56;;;;;;;5.30;3.35;;;;;;;;;;5034528;28;20048;-74
2022/05/11 10:58:27;;;;;;;4.57;3.20;;;;;;;;;;5034477;28;20029;-74
2022/05/11 11:01:02;;;;;;;3.22;2.97;;;;;;;;;;5034720;28;20029;-74
2022/05/11 11:03:33;;;;;;;3.67;3.10;;;;;;;;;;5034412;28;20040;-75
2022/05/11 11:09:15;;;;;;;3.58;3.03;;;;;;;;;;5034253;28;20469;-74
2022/05/11 11:12:13;;;;;;;4.70;3.25;;;;;;;;;;5023644;28;20045;-74
2022/05/11 11:14:41;;;;;;;3.17;2.80;;;;;;;;;;4990337;28;20102;-74
2022/05/11 11:17:10;;;;;;;4.57;3.33;;;;;;;;;;5034179;28;20612;-74
2022/05/11 11:19:36;;;;;;;3.35;3.10;;;;;;;;;;5034390;28;20112;-74
2022/05/11 11:22:04;;;;;;;3.70;3.45;;;;;;;;;;5034077;28;20121;-74
2022/05/11 11:24:30;;;;;;;3.10;2.90;;;;;;;;;;5034331;28;20049;-74
2022/05/11 11:26:59;;;;;;;4.38;3.42;;;;;;;;;;5033907;28;20389;-74
2022/05/11 11:29:29;;;;;;;3.80;3.47;;;;;;;;;;5033972;28;20359;-74
2022/05/11 11:32:00;;;;;;;3.13;2.92;;;;;;;;;;5033944;28;20568;-74
2022/05/11 11:34:28;;;;;;;3.22;3.00;;;;;;;;;;5033854;28;20135;-74
2022/05/11 11:36:53;;;;;;;7.93;3.88;;;;;;;;;;5033811;28;20017;-74
2022/05/11 11:39:37;;;;;;;4.13;3.70;;;;;;;;;;5033713;28;20063;-74
2022/05/11 11:42:06;;;;;;;3.58;3.28;;;;;;;;;;5033625;28;20037;-74
2022/05/11 11:44:36;;;;;;;2.92;2.47;;;;;;;;;;5033619;28;20484;-74
2022/05/11 11:47:25;;;;;;;3.55;3.28;;;;;;;;;;5033505;28;20028;-74
2022/05/11 11:49:50;;;;;;;3.35;2.95;;;;;;;;;;5015667;28;20370;-74
2022/05/11 11:52:35;;;;;;;4.00;3.60;;;;;;;;;;5033460;28;20028;-74
2022/05/11 11:55:01;;;;;;;3.05;2.85;;;;;;;;;;5033395;28;20276;-75
2022/05/11 11:57:32;;;;;;;5.32;3.30;;;;;;;;;;5033431;28;20026;-74
2022/05/11 12:00:02;;;;;;;4.00;3.03;;;;;;;;;;5032696;28;20108;-74
2022/05/11 12:02:39;;;;;;;3.93;3.13;;;;;;;;;;5033608;28;20041;-74
2022/05/11 12:05:05;;;;;;;3.28;3.03;;;;;;;;;;5033250;28;20036;-74
2022/05/11 12:16:05;;;;;;;3.10;2.90;;;;;;;;;;5033041;28;20042;-71
2022/05/11 12:18:40;;;;;;;2.73;2.47;;;;;;;;;;5033021;28;20029;-72
2022/05/11 12:21:25;;;;;;;3.17;2.97;;;;;;;;;;5033010;28;20025;-74
2022/05/11 12:23:51;;;;;;;5.00;3.70;;;;;;;;;;5032408;28;20037;-74
2022/05/11 12:26:21;;;;;;;3.17;2.90;;;;;;;;;;5015224;28;20515;-74
2022/05/11 12:28:46;;;;;;;3.33;2.92;;;;;;;;;;5032847;28;20029;-74
2022/05/11 12:31:30;;;;;;;3.35;3.05;;;;;;;;;;5032794;28;20021;-74
2022/05/11 12:33:55;;;;;;;3.05;2.78;;;;;;;;;;5032786;28;20040;-74
2022/05/11 12:36:34;;;;;;;2.67;2.47;;;;;;;;;;5032724;28;20029;-75
2022/05/11 12:39:00;;;;;;;5.45;3.38;;;;;;;;;;5033042;28;20073;-74
2022/05/11 12:41:27;;;;;;;2.70;2.60;;;;;;;;;;5033156;28;20057;-74
2022/05/11 12:43:56;;;;;;;3.50;3.28;;;;;;;;;;5032645;28;20087;-74
2022/05/11 12:46:21;;;;;;;4.75;2.88;;;;;;;;;;5033032;28;20417;-74
2022/05/11 12:48:57;;;;;;;3.53;3.22;;;;;;;;;;5032594;28;20113;-74
2022/05/11 12:51:29;;;;;;;3.17;2.88;;;;;;;;;;5032526;28;20029;-74
2022/05/11 12:53:59;;;;;;;5.03;3.28;;;;;;;;;;5032582;28;20025;-74
2022/05/11 12:56:27;;;;;;;4.70;3.43;;;;;;;;;;5032582;28;20025;-74
2022/05/11 12:58:57;;;;;;;3.63;3.08;;;;;;;;;;5032472;28;20127;-74
2022/05/11 13:01:23;;;;;;;2.57;2.37;;;;;;;;;;5032507;28;20029;-74
2022/05/11 13:03:50;;;;;;;3.25;3.05;;;;;;;;;;5032435;28;20424;-74
2022/05/11 13:06:25;;;;;;;3.40;3.10;;;;;;;;;;5032706;28;20029;-74
2022/05/11 13:08:52;;;;;;;5.20;2.83;;;;;;;;;;5032936;28;20116;-74
2022/05/11 13:11:20;;;;;;;3.63;3.33;;;;;;;;;;5034648;28;20013;-74
2022/05/11 13:13:47;;;;;;;3.20;2.85;;;;;;;;;;5036529;28;20428;-74
2022/05/11 13:16:18;;;;;;;3.25;2.90;;;;;;;;;;5037522;28;20033;-74
2022/05/11 13:18:44;;;;;;;3.38;2.80;;;;;;;;;;5037596;28;20160;-74
2022/05/11 13:21:10;;;;;;;3.33;2.70;;;;;;;;;;5037547;28;20033;-74
2022/05/11 13:23:49;;;;;;;2.72;2.58;;;;;;;;;;5037346;28;20425;-75
2022/05/11 13:26:35;;;;;;;3.33;2.97;;;;;;;;;;5037360;28;20025;-75
2022/05/11 13:29:08;;;;;;;4.30;2.17;;;;;;;;;;5037966;28;20037;-75
2022/05/11 13:31:34;;;;;;;2.80;2.30;;;;;;;;;;5038026;28;20026;-75
2022/05/11 13:34:01;;;;;;;3.08;2.75;;;;;;;;;;5019667;28;20028;-75
2022/05/11 13:36:38;;;;;;;5.05;2.72;;;;;;;;;;5037717;28;20053;-76
2022/05/11 13:39:09;;;;;;;2.78;2.58;;;;;;;;;;5037408;28;20037;-76
2022/05/11 13:41:37;;;;;;;4.03;3.10;;;;;;;;;;5037111;28;20025;-76
2022/05/11 13:44:06;;;;;;;3.38;3.08;;;;;;;;;;5037148;28;20442;-75
2022/05/11 13:48:11;;;;;;;3.28;2.78;;;;;;;;;;5037002;28;20452;-75
2022/05/11 13:49:32;;;;;;;5.15;3.17;;;;;;;;;;5037568;28;20048;-76
2022/05/11 13:51:59;;;;;;;3.20;2.90;;;;;;;;;;5036891;28;20032;-76
2022/05/11 13:54:37;;;;;;;3.08;2.78;;;;;;;;;;5037007;28;20081;-76
2022/05/11 13:57:04;;;;;;;3.95;2.72;;;;;;;;;;5037186;28;20041;-76
2022/05/11 13:59:31;;;;;;;3.03;2.83;;;;;;;;;;5037149;28;20485;-76
2022/05/11 14:01:59;;;;;;;4.18;2.92;;;;;;;;;;5037341;28;20052;-76
2022/05/11 14:04:31;;;;;;;2.92;2.70;;;;;;;;;;5036648;28;20021;-76
2022/05/11 14:06:59;;;;;;;4.05;3.10;;;;;;;;;;5036528;28;20083;-76
2022/05/11 14:09:26;;;;;;;2.70;2.55;;;;;;;;;;5036558;28;20100;-76
2022/05/11 14:11:51;;;;;;;3.15;2.85;;;;;;;;;;5036473;28;20033;-76
2022/05/11 14:14:16;;;;;;;5.97;3.00;;;;;;;;;;5034744;28;20125;-76
2022/05/11 14:16:42;;;;;;;2.97;2.78;;;;;;;;;;5056397;28;20051;-76
2022/05/11 14:19:07;;;;;;;2.90;2.80;;;;;;;;;;5056431;28;20043;-76
2022/05/11 14:21:37;;;;;;;3.15;2.90;;;;;;;;;;5056223;28;20029;-76
2022/05/11 14:24:02;;;;;;;2.65;2.50;;;;;;;;;;5055589;28;20075;-76
2022/05/11 14:26:28;;;;;;;3.13;2.92;;;;;;;;;;5056250;28;20094;-76
2022/05/11 14:28:53;;;;;;;3.08;2.78;;;;;;;;;;5056092;28;20032;-76
2022/05/11 14:31:18;;;;;;;2.80;2.60;;;;;;;;;;5056111;28;20479;-76
2022/05/11 14:33:45;;;;;;;2.88;2.67;;;;;;;;;;5056257;28;20270;-76
2022/05/11 14:36:11;;;;;;;3.05;2.85;;;;;;;;;;5055988;28;20017;-76
2022/05/11 14:38:37;;;;;;;3.75;2.40;;;;;;;;;;5056109;28;20029;-76
2022/05/11 14:41:02;;;;;;;3.83;3.05;;;;;;;;;;5055906;28;20032;-76
2022/05/11 14:43:28;;;;;;;2.90;2.70;;;;;;;;;;5055871;28;20481;-76
2022/05/11 14:45:55;;;;;;;2.90;2.70;;;;;;;;;;5055745;28;20039;-76
2022/05/11 14:48:25;;;;;;;3.00;2.80;;;;;;;;;;5055803;28;20286;-76
2022/05/11 14:50:51;;;;;;;2.70;2.60;;;;;;;;;;5055920;28;20427;-76
2022/05/11 14:53:16;;;;;;;2.75;2.55;;;;;;;;;;5055632;28;20339;-76
2022/05/11 14:55:41;;;;;;;6.10;2.92;;;;;;;;;;5055684;28;20032;-76
2022/05/11 15:03:35;;;;;;;4.72;2.90;;;;;;;;;;5055667;28;20060;-75
2022/05/11 15:06:00;;;;;;;3.15;2.35;;;;;;;;;;5055350;28;20473;-76
2022/05/11 15:08:26;;;;;;;2.65;2.50;;;;;;;;;;5055420;28;20124;-76
2022/05/11 15:13:30;;;;;;;5.90;2.80;;;;;;;;;;5037498;28;20017;-76
2022/05/11 15:13:37;;;;;;;2.92;2.72;;;;;;;;;;5055182;28;20378;-76
2022/05/11 15:16:03;;;;;;;2.88;2.38;;;;;;;;;;5055510;28;20044;-76
2022/05/11 15:18:29;;;;;;;2.95;2.67;;;;;;;;;;5055521;28;20025;-76
2022/05/11 15:20:55;;;;;;;3.50;2.47;;;;;;;;;;5055185;28;20029;-76
2022/05/11 15:23:20;;;;;;;2.95;2.75;;;;;;;;;;5055064;28;20021;-76
2022/05/11 15:25:46;;;;;;;3.35;2.60;;;;;;;;;;5055072;28;20033;-76
2022/05/11 15:28:11;;;;;;;4.85;2.85;;;;;;;;;;5054995;28;20017;-76
2022/05/11 15:30:40;;;;;;;3.28;2.55;;;;;;;;;;5055094;28;20186;-76
2022/05/11 15:33:05;;;;;;;2.97;2.78;;;;;;;;;;5054984;28;20040;-76